createdAt,value
2023-01-31T00:05:54.746Z,3.32
2023-01-31T00:08:58.142Z,3.21
2023-01-31T00:11:37.658Z,3.38
2023-01-31T00:14:11.689Z,3.40
2023-01-31T00:16:45.903Z,3.38
2023-01-31T00:19:42.966Z,3.44
2023-01-31T00:26:21.802Z,3.49
2023-01-31T00:28:54.665Z,3.57
2023-01-31T00:32:20.315Z,3.57
2023-01-31T00:35:21.782Z,3.66
2023-01-31T00:37:52.199Z,3.73
2023-01-31T00:41:19.617Z,3.83
2023-01-31T00:45:01.231Z,3.86
2023-01-31T00:52:26.110Z,3.76
2023-01-31T00:54:54.358Z,3.80
2023-01-31T00:58:23.555Z,3.76
2023-01-31T01:00:55.752Z,3.73
2023-01-31T01:03:29.967Z,3.78
2023-01-31T01:06:02.830Z,3.80
2023-01-31T01:08:42.932Z,3.78
2023-01-31T01:11:13.613Z,3.69
2023-01-31T01:14:14.840Z,3.71
2023-01-31T01:16:45.742Z,3.63
2023-01-31T01:19:18.789Z,3.77
2023-01-31T01:21:52.779Z,3.66
2023-01-31T01:24:27.402Z,3.73
2023-01-31T01:27:00.754Z,3.69
2023-01-31T01:29:39.875Z,3.74
2023-01-31T01:32:11.837Z,3.93
2023-01-31T01:34:56.467Z,3.91
2023-01-31T01:37:25.751Z,4.01
2023-01-31T01:40:35.552Z,3.95
2023-01-31T01:43:07.790Z,3.99
2023-01-31T01:45:39.084Z,3.94
2023-01-31T01:48:09.786Z,4.02
2023-01-31T01:51:00.495Z,4.04
2023-01-31T01:53:31.977Z,4.05
2023-01-31T01:56:19.180Z,3.98
2023-01-31T01:58:56.164Z,4.06
2023-01-31T02:01:51.039Z,3.99
2023-01-31T02:04:53.535Z,3.97
2023-01-31T02:07:35.064Z,3.88
2023-01-31T02:10:12.479Z,3.91
2023-01-31T02:12:52.187Z,4.01
2023-01-31T02:15:21.203Z,3.97
2023-01-31T02:18:31.219Z,3.97
2023-01-31T02:22:00.233Z,4.09
2023-01-31T02:24:58.515Z,4.15
2023-01-31T02:28:05.770Z,4.12
2023-01-31T02:31:01.382Z,4.04
2023-01-31T02:33:40.391Z,4.11
2023-01-31T02:36:16.914Z,4.09
2023-01-31T02:38:59.067Z,4.11
2023-01-31T02:42:26.249Z,4.12
2023-01-31T02:45:05.706Z,4.09
2023-01-31T02:48:08.992Z,4.08
2023-01-31T02:56:02.049Z,4.14
2023-01-31T02:58:40.909Z,4.09
2023-01-31T03:01:16.566Z,4.06
2023-01-31T03:03:52.902Z,3.98
2023-01-31T03:06:55.031Z,3.91
2023-01-31T03:09:36.877Z,3.83
2023-01-31T03:12:34.598Z,3.86
2023-01-31T03:16:17.999Z,3.77
2023-01-31T03:19:43.239Z,3.71
2023-01-31T03:22:45.436Z,3.64
2023-01-31T03:25:24.755Z,3.56
2023-01-31T03:28:30.909Z,3.50
2023-01-31T03:31:35.043Z,3.52
2023-01-31T03:34:07.772Z,3.46
2023-01-31T03:36:42.777Z,3.44
2023-01-31T03:40:03.030Z,3.49
2023-01-31T03:42:40.509Z,3.43
2023-01-31T03:45:17.052Z,3.38
2023-01-31T03:47:50.281Z,3.33
2023-01-31T03:50:51.850Z,3.25
2023-01-31T03:53:36.155Z,3.28
2023-01-31T03:57:08.763Z,3.22
2023-01-31T03:59:41.252Z,3.38
2023-01-31T04:02:14.375Z,3.25
2023-01-31T04:04:49.234Z,3.21
2023-01-31T04:07:40.070Z,3.22
2023-01-31T04:10:15.225Z,3.30
2023-01-31T04:12:43.502Z,3.30
2023-01-31T04:15:40.496Z,3.28
2023-01-31T04:18:10.122Z,3.33
2023-01-31T04:20:38.409Z,3.42
2023-01-31T04:23:09.644Z,3.38
2023-01-31T04:30:17.511Z,3.46
2023-01-31T04:32:55.782Z,3.36
2023-01-31T04:35:29.202Z,3.23
2023-01-31T04:38:06.464Z,2.85
2023-01-31T04:40:35.707Z,2.73
2023-01-31T04:43:05.079Z,2.68
2023-01-31T04:49:45.468Z,2.49
2023-01-31T04:53:23.918Z,2.33
2023-01-31T05:00:27.203Z,2.36
2023-01-31T05:03:53.865Z,2.40
2023-01-31T05:10:59.239Z,2.42
2023-01-31T05:23:37.290Z,2.35
2023-01-31T05:26:35.416Z,2.29
2023-01-31T05:29:15.301Z,2.30
2023-01-31T05:32:52.127Z,2.09
2023-01-31T05:36:32.391Z,2.11
2023-01-31T05:53:04.320Z,1.98
2023-01-31T06:00:17.887Z,2.15
2023-01-31T06:02:59.722Z,2.19
2023-01-31T06:06:44.643Z,2.44
2023-01-31T06:09:20.228Z,2.65
2023-01-31T06:11:51.605Z,2.60
2023-01-31T06:19:05.866Z,2.80
2023-01-31T06:21:39.786Z,2.80
2023-01-31T06:28:51.974Z,2.76
2023-01-31T06:35:43.879Z,2.87
2023-01-31T06:38:45.490Z,2.84
2023-01-31T06:41:28.808Z,2.87
2023-01-31T06:44:03.334Z,2.85
2023-01-31T06:46:39.876Z,2.88
2023-01-31T06:49:09.737Z,2.91
2023-01-31T06:51:44.215Z,2.88
2023-01-31T06:58:55.981Z,2.94
2023-01-31T07:05:36.227Z,3.04
2023-01-31T07:08:06.936Z,3.11
2023-01-31T07:10:49.262Z,3.19
2023-01-31T07:13:19.948Z,3.23
2023-01-31T07:15:58.108Z,3.36
2023-01-31T07:18:30.198Z,3.49
2023-01-31T07:21:04.092Z,3.57
2023-01-31T07:23:37.816Z,3.67
2023-01-31T07:26:07.471Z,3.69
2023-01-31T07:28:39.636Z,3.77
2023-01-31T07:32:23.297Z,3.77
2023-01-31T07:34:56.729Z,3.81
2023-01-31T07:37:56.299Z,3.83
2023-01-31T07:40:28.706Z,3.90
2023-01-31T07:43:59.315Z,3.95
2023-01-31T07:46:28.667Z,3.98
2023-01-31T07:49:14.070Z,4.02
2023-01-31T07:52:12.217Z,4.18
2023-01-31T07:55:00.974Z,4.25
2023-01-31T07:57:33.052Z,4.35
2023-01-31T08:00:32.026Z,4.39
2023-01-31T08:03:20.924Z,4.29
2023-01-31T08:05:50.327Z,4.41
2023-01-31T08:08:49.305Z,4.32
2023-01-31T08:11:24.987Z,4.26
2023-01-31T08:13:57.752Z,4.24
2023-01-31T08:16:40.356Z,4.22
2023-01-31T08:19:41.453Z,4.16
2023-01-31T08:22:12.916Z,4.19
2023-01-31T08:24:43.224Z,4.12
2023-01-31T08:27:21.101Z,4.18
2023-01-31T08:29:51.418Z,4.21
2023-01-31T08:32:30.807Z,4.19
2023-01-31T08:35:00.180Z,4.28
2023-01-31T08:37:29.567Z,4.29
2023-01-31T08:40:04.089Z,4.28
2023-01-31T08:43:10.661Z,4.33
2023-01-31T08:46:15.922Z,4.43
2023-01-31T08:50:01.035Z,4.48
2023-01-31T08:53:03.417Z,4.43
2023-01-31T08:55:37.638Z,4.54
2023-01-31T08:59:21.550Z,4.66
2023-01-31T09:03:09.838Z,4.77
2023-01-31T09:05:40.621Z,4.81
2023-01-31T09:08:27.779Z,4.80
2023-01-31T09:10:56.625Z,4.71
2023-01-31T09:13:25.916Z,4.69
2023-01-31T09:16:00.705Z,4.54
2023-01-31T09:18:32.188Z,4.41
2023-01-31T09:21:07.119Z,4.33
2023-01-31T09:23:41.384Z,4.50
2023-01-31T09:26:43.382Z,4.74
2023-01-31T09:29:12.690Z,4.81
2023-01-31T09:32:14.352Z,4.94
2023-01-31T09:34:43.832Z,4.97
2023-01-31T09:38:16.885Z,5.08
2023-01-31T09:42:04.873Z,4.85
2023-01-31T09:44:42.674Z,4.76
2023-01-31T09:48:17.787Z,4.98
2023-01-31T09:50:59.472Z,5.12
2023-01-31T09:54:29.403Z,5.45
2023-01-31T09:58:18.969Z,5.52
2023-01-31T10:01:00.895Z,5.78
2023-01-31T10:04:00.469Z,5.48
2023-01-31T10:06:42.062Z,5.46
2023-01-31T10:09:36.036Z,5.60
2023-01-31T10:12:14.311Z,5.50
2023-01-31T10:14:52.050Z,5.48
2023-01-31T10:17:58.070Z,5.69
2023-01-31T10:20:44.108Z,5.62
2023-01-31T10:23:23.724Z,5.78
2023-01-31T10:26:50.363Z,5.49
2023-01-31T10:30:23.603Z,5.69
2023-01-31T10:33:04.126Z,5.60
2023-01-31T10:35:59.811Z,5.80
2023-01-31T10:38:35.490Z,5.69
2023-01-31T10:41:39.883Z,5.98
2023-01-31T10:48:47.327Z,6.05
2023-01-31T10:55:59.471Z,5.67
2023-01-31T10:58:32.485Z,5.95
2023-01-31T11:01:12.145Z,5.94
2023-01-31T11:03:50.904Z,6.05
2023-01-31T11:06:39.102Z,6.05
2023-01-31T11:09:39.344Z,6.05
2023-01-31T11:12:15.722Z,5.86
2023-01-31T11:14:46.366Z,5.74
2023-01-31T11:17:40.200Z,5.76
2023-01-31T11:21:12.844Z,5.77
2023-01-31T11:33:44.273Z,5.81
2023-01-31T11:40:56.583Z,6.03
2023-01-31T11:48:29.129Z,6.36
2023-01-31T11:59:59.060Z,6.24
2023-01-31T12:03:09.121Z,6.41
2023-01-31T12:10:37.464Z,6.35
2023-01-31T12:17:36.956Z,6.29
2023-01-31T12:24:59.618Z,6.15
2023-01-31T12:36:35.675Z,5.87
2023-01-31T12:44:44.810Z,6.18
2023-01-31T12:52:03.434Z,6.08
2023-01-31T12:59:16.376Z,6.00
2023-01-31T13:11:19.747Z,6.08
2023-01-31T13:18:23.680Z,5.90
2023-01-31T13:25:40.344Z,5.95
2023-01-31T13:42:18.322Z,5.49
2023-01-31T13:49:38.745Z,5.27
2023-01-31T13:56:42.369Z,5.15
2023-01-31T14:04:29.139Z,4.98
2023-01-31T14:11:35.760Z,4.76
2023-01-31T14:18:47.603Z,4.69
2023-01-31T14:25:51.256Z,4.66
2023-01-31T14:34:32.861Z,4.45
2023-01-31T14:37:14.997Z,4.31
2023-01-31T14:44:21.931Z,4.22
2023-01-31T14:56:07.645Z,4.06
2023-01-31T15:03:19.392Z,4.02
2023-01-31T15:10:53.637Z,4.01
2023-01-31T15:22:02.584Z,3.90
2023-01-31T15:29:20.113Z,3.83
2023-01-31T15:31:51.342Z,3.81
2023-01-31T15:35:17.276Z,3.80
2023-01-31T15:42:31.776Z,3.71
2023-01-31T15:49:40.512Z,3.76
2023-01-31T15:56:52.532Z,3.44
2023-01-31T16:03:58.001Z,3.46
2023-01-31T16:10:50.879Z,3.73
2023-01-31T16:18:04.358Z,4.08
2023-01-31T16:25:07.501Z,4.09
2023-01-31T16:37:08.808Z,4.28
2023-01-31T16:44:18.562Z,4.35
2023-01-31T16:51:43.486Z,4.41
2023-01-31T16:58:57.634Z,4.41
2023-01-31T17:10:36.898Z,4.42
2023-01-31T17:17:51.139Z,4.42
2023-01-31T17:24:54.309Z,4.43
2023-01-31T17:36:51.169Z,4.33
2023-01-31T17:43:53.555Z,4.12
2023-01-31T17:51:06.992Z,3.95
2023-01-31T17:58:14.486Z,3.94
2023-01-31T18:10:11.114Z,4.08
2023-01-31T18:17:15.321Z,4.14
2023-01-31T18:24:27.337Z,4.04
2023-01-31T18:27:29.386Z,4.15
2023-01-31T18:30:08.338Z,4.15
2023-01-31T18:34:06.366Z,4.19
2023-01-31T18:42:00.211Z,4.22
2023-01-31T18:45:30.819Z,4.31
2023-01-31T18:52:36.806Z,4.25
2023-01-31T18:55:18.961Z,4.25
2023-01-31T18:58:24.682Z,4.36
2023-01-31T19:01:31.862Z,4.35
2023-01-31T19:05:13.808Z,4.41
2023-01-31T19:12:27.938Z,4.42
2023-01-31T19:15:33.724Z,4.33
2023-01-31T19:22:38.357Z,4.11
2023-01-31T19:28:54.553Z,3.84
2023-01-31T19:31:27.618Z,3.66
2023-01-31T19:34:28.512Z,3.55
2023-01-31T19:37:04.446Z,3.40
2023-01-31T19:40:07.378Z,3.33
2023-01-31T19:42:41.969Z,3.30
2023-01-31T19:45:21.868Z,3.23
2023-01-31T19:48:09.917Z,3.21
2023-01-31T19:50:45.512Z,3.22
2023-01-31T19:53:50.832Z,3.19
2023-01-31T19:56:29.782Z,3.15
2023-01-31T19:59:16.780Z,3.13
2023-01-31T20:02:54.567Z,3.07
2023-01-31T20:05:40.281Z,3.00
2023-01-31T20:08:11.890Z,2.92
2023-01-31T20:11:50.955Z,2.83
2023-01-31T20:18:56.747Z,2.79
2023-01-31T20:26:02.174Z,2.76
2023-01-31T20:34:13.836Z,2.70
2023-01-31T20:37:27.824Z,2.63
2023-01-31T20:40:57.347Z,2.67
2023-01-31T20:48:11.965Z,2.50
2023-01-31T20:51:01.731Z,2.46
2023-01-31T20:53:34.503Z,2.46
2023-01-31T20:56:16.615Z,2.47
2023-01-31T20:58:46.769Z,2.44
2023-01-31T21:01:24.877Z,2.44
2023-01-31T21:03:58.089Z,2.43
2023-01-31T21:07:00.345Z,2.47
2023-01-31T21:09:31.670Z,2.46
2023-01-31T21:12:03.607Z,2.53
2023-01-31T21:15:03.545Z,2.57
2023-01-31T21:17:39.966Z,2.61
2023-01-31T21:20:41.074Z,2.73
2023-01-31T21:23:36.236Z,2.79
2023-01-31T21:26:37.411Z,2.83
2023-01-31T21:29:37.154Z,2.83
2023-01-31T21:32:36.402Z,2.79
2023-01-31T21:35:11.256Z,2.90
2023-01-31T21:37:55.721Z,2.68
2023-01-31T21:41:39.313Z,2.52
2023-01-31T21:49:29.126Z,2.52
2023-01-31T21:52:29.176Z,2.49
2023-01-31T21:55:12.867Z,2.54
2023-01-31T21:57:44.523Z,2.54
2023-01-31T22:00:26.430Z,2.35
2023-01-31T22:03:00.679Z,2.29
2023-01-31T22:05:29.050Z,2.26
2023-01-31T22:08:00.498Z,2.30
2023-01-31T22:10:32.365Z,2.25
2023-01-31T22:13:01.760Z,2.32
2023-01-31T22:15:32.104Z,2.36
2023-01-31T22:18:57.953Z,2.32
2023-01-31T22:22:27.960Z,2.29
2023-01-31T22:25:26.003Z,2.37
2023-01-31T22:27:58.000Z,2.28
2023-01-31T22:30:59.912Z,2.22
2023-01-31T22:33:35.202Z,2.28
2023-01-31T22:36:34.890Z,2.29
2023-01-31T22:39:03.541Z,2.28
2023-01-31T22:41:34.081Z,2.29
2023-01-31T22:44:10.979Z,2.30
2023-01-31T22:46:40.481Z,2.37
2023-01-31T22:49:13.693Z,2.44
2023-01-31T22:51:44.509Z,2.50
2023-01-31T22:54:18.720Z,2.52
2023-01-31T22:56:51.469Z,2.52
2023-01-31T22:59:25.273Z,2.52
2023-01-31T23:01:57.442Z,2.53
2023-01-31T23:04:26.860Z,2.58
2023-01-31T23:06:55.207Z,2.56
2023-01-31T23:09:27.375Z,2.60
2023-01-31T23:12:25.308Z,2.64
2023-01-31T23:15:14.595Z,2.70
2023-01-31T23:18:42.084Z,2.77
2023-01-31T23:21:42.864Z,2.83
2023-01-31T23:24:26.627Z,2.84
2023-01-31T23:27:00.383Z,2.92
2023-01-31T23:29:29.823Z,2.90
2023-01-31T23:32:33.554Z,2.88
2023-01-31T23:35:32.612Z,2.94
2023-01-31T23:38:01.912Z,2.97
2023-01-31T23:40:32.450Z,2.98
2023-01-31T23:43:35.053Z,3.01
2023-01-31T23:46:03.443Z,3.04
2023-01-31T23:48:35.828Z,3.05
2023-01-31T23:51:15.240Z,3.00
2023-01-31T23:53:44.768Z,3.08
2023-01-31T23:56:20.217Z,3.15
2023-01-31T23:59:19.315Z,3.26
